createdAt,value
2022-11-10T00:02:32.335Z,10.36
2022-11-10T00:05:17.825Z,10.37
2022-11-10T00:08:07.781Z,10.19
2022-11-10T00:10:59.063Z,10.00
2022-11-10T00:14:06.634Z,10.06
2022-11-10T00:17:01.416Z,9.78
2022-11-10T00:19:47.209Z,9.66
2022-11-10T00:22:34.346Z,9.73
2022-11-10T00:25:19.608Z,9.59
2022-11-10T00:28:04.892Z,9.49
2022-11-10T00:30:50.169Z,9.49
2022-11-10T00:33:36.829Z,9.26
2022-11-10T00:36:22.046Z,9.36
2022-11-10T00:39:07.637Z,9.32
2022-11-10T00:41:53.138Z,9.44
2022-11-10T00:44:38.285Z,9.51
2022-11-10T00:47:23.418Z,9.51
2022-11-10T00:50:08.873Z,9.48
2022-11-10T00:52:54.377Z,9.39
2022-11-10T00:55:41.316Z,9.35
2022-11-10T00:58:26.485Z,9.25
2022-11-10T01:01:12.411Z,9.13
2022-11-10T01:03:57.723Z,8.93
2022-11-10T01:06:42.768Z,8.80
2022-11-10T01:09:27.933Z,8.67
2022-11-10T01:12:14.515Z,8.76
2022-11-10T01:15:00.085Z,8.82
2022-11-10T01:17:45.165Z,8.85
2022-11-10T01:20:30.277Z,8.90
2022-11-10T01:23:15.568Z,8.71
2022-11-10T01:26:06.209Z,8.54
2022-11-10T01:28:51.588Z,8.45
2022-11-10T01:31:37.185Z,8.63
2022-11-10T01:34:22.624Z,8.72
2022-11-10T01:37:08.137Z,8.70
2022-11-10T01:39:53.507Z,8.96
2022-11-10T01:42:51.791Z,9.13
2022-11-10T01:45:56.495Z,9.06
2022-11-10T01:49:00.655Z,9.03
2022-11-10T01:51:57.779Z,9.05
2022-11-10T01:54:48.942Z,8.98
2022-11-10T01:57:35.875Z,9.12
2022-11-10T02:00:22.040Z,8.94
2022-11-10T02:03:11.541Z,8.75
2022-11-10T02:05:57.295Z,8.80
2022-11-10T02:08:44.443Z,8.78
2022-11-10T02:11:30.776Z,8.84
2022-11-10T02:14:16.770Z,8.49
2022-11-10T02:17:01.869Z,8.44
2022-11-10T02:19:47.042Z,8.47
2022-11-10T02:22:32.812Z,8.43
2022-11-10T02:25:21.402Z,8.37
2022-11-10T02:28:06.778Z,8.26
2022-11-10T02:30:52.361Z,8.29
2022-11-10T02:33:37.550Z,8.34
2022-11-10T02:36:22.860Z,8.35
2022-11-10T02:39:08.224Z,8.37
2022-11-10T02:41:53.680Z,8.42
2022-11-10T02:44:40.182Z,8.42
2022-11-10T02:47:25.616Z,8.40
2022-11-10T02:50:10.941Z,8.39
2022-11-10T02:52:56.170Z,8.30
2022-11-10T02:55:41.939Z,8.34
2022-11-10T02:58:27.077Z,8.13
2022-11-10T03:01:12.295Z,8.15
2022-11-10T03:03:57.522Z,8.20
2022-11-10T03:06:42.656Z,8.13
2022-11-10T03:09:27.800Z,8.01
2022-11-10T03:12:12.978Z,7.64
2022-11-10T03:14:58.253Z,7.62
2022-11-10T03:17:43.462Z,7.52
2022-11-10T03:20:28.764Z,7.63
2022-11-10T03:23:14.106Z,7.15
2022-11-10T03:25:59.186Z,6.87
2022-11-10T03:28:44.729Z,6.77
2022-11-10T03:31:29.929Z,6.74
2022-11-10T03:34:15.247Z,6.89
2022-11-10T03:37:00.440Z,6.89
2022-11-10T03:39:45.570Z,7.06
2022-11-10T03:42:31.225Z,7.26
2022-11-10T03:45:16.681Z,7.38
2022-11-10T03:48:02.276Z,7.35
2022-11-10T03:50:47.597Z,7.25
2022-11-10T03:53:32.836Z,7.22
2022-11-10T03:56:18.213Z,7.13
2022-11-10T03:59:03.444Z,7.21
2022-11-10T04:01:48.704Z,7.39
2022-11-10T04:04:52.774Z,7.58
2022-11-10T04:07:57.003Z,7.66
2022-11-10T04:10:42.775Z,7.82
2022-11-10T04:13:46.638Z,7.89
2022-11-10T04:16:31.980Z,7.82
2022-11-10T04:19:17.248Z,7.91
2022-11-10T04:22:03.017Z,7.90
2022-11-10T04:24:48.754Z,7.91
2022-11-10T04:27:34.050Z,7.91
2022-11-10T04:30:19.333Z,7.89
2022-11-10T04:33:04.869Z,7.81
2022-11-10T04:35:50.202Z,7.60
2022-11-10T04:38:36.118Z,7.47
2022-11-10T04:41:23.087Z,7.42
2022-11-10T04:44:08.681Z,7.37
2022-11-10T04:46:54.152Z,7.34
2022-11-10T04:49:39.584Z,6.93
2022-11-10T04:52:24.813Z,6.57
2022-11-10T04:55:10.153Z,6.38
2022-11-10T04:57:55.209Z,6.30
2022-11-10T05:00:41.749Z,6.57
2022-11-10T05:03:27.215Z,6.62
2022-11-10T05:06:12.788Z,6.66
2022-11-10T05:08:58.299Z,6.64
2022-11-10T05:11:43.353Z,6.76
2022-11-10T05:14:28.630Z,6.63
2022-11-10T05:17:14.002Z,6.65
2022-11-10T05:19:59.133Z,6.74
2022-11-10T05:23:08.794Z,6.58
2022-11-10T05:25:54.350Z,6.67
2022-11-10T05:28:41.328Z,6.54
2022-11-10T05:31:26.755Z,6.49
2022-11-10T05:34:12.118Z,6.81
2022-11-10T05:36:57.537Z,6.80
2022-11-10T05:39:43.017Z,6.83
2022-11-10T05:42:28.336Z,6.95
2022-11-10T05:45:15.029Z,6.78
2022-11-10T05:48:00.678Z,7.08
2022-11-10T05:50:45.980Z,7.07
2022-11-10T05:53:31.608Z,6.97
2022-11-10T05:56:16.819Z,7.03
2022-11-10T05:59:01.993Z,6.99
2022-11-10T06:01:47.734Z,7.17
2022-11-10T06:04:33.162Z,7.08
2022-11-10T06:07:18.703Z,7.09
2022-11-10T06:10:04.695Z,6.90
2022-11-10T06:12:50.733Z,6.54
2022-11-10T06:15:36.540Z,6.87
2022-11-10T06:18:21.698Z,6.92
2022-11-10T06:21:07.104Z,6.42
2022-11-10T06:23:52.618Z,6.14
2022-11-10T06:26:37.944Z,6.16
2022-11-10T06:29:26.816Z,6.72
2022-11-10T06:32:12.518Z,7.12
2022-11-10T06:35:00.521Z,7.22
2022-11-10T06:37:46.444Z,7.24
2022-11-10T06:40:32.563Z,7.44
2022-11-10T06:43:18.033Z,6.98
2022-11-10T06:46:03.794Z,6.95
2022-11-10T06:48:49.136Z,7.02
2022-11-10T06:51:34.786Z,7.28
2022-11-10T06:54:20.208Z,7.33
2022-11-10T06:57:05.983Z,7.45
2022-11-10T06:59:51.574Z,7.25
2022-11-10T07:02:36.710Z,7.42
2022-11-10T07:05:21.942Z,7.46
2022-11-10T07:08:16.524Z,7.29
2022-11-10T07:11:01.828Z,7.16
2022-11-10T07:13:47.081Z,6.99
2022-11-10T07:16:32.687Z,7.12
2022-11-10T07:19:18.350Z,7.58
2022-11-10T07:22:09.580Z,7.81
2022-11-10T07:24:57.771Z,7.62
2022-11-10T07:27:43.209Z,7.85
2022-11-10T07:30:30.454Z,7.83
2022-11-10T07:33:15.951Z,8.04
2022-11-10T07:36:07.085Z,8.06
2022-11-10T07:38:52.515Z,8.09
2022-11-10T07:41:37.808Z,8.42
2022-11-10T07:44:22.973Z,8.56
2022-11-10T07:47:08.312Z,8.84
2022-11-10T07:49:53.471Z,9.20
2022-11-10T07:52:39.021Z,9.54
2022-11-10T07:55:24.482Z,9.74
2022-11-10T07:58:12.169Z,10.10
2022-11-10T08:00:57.359Z,10.09
2022-11-10T08:03:42.846Z,10.31
2022-11-10T08:06:30.139Z,10.55
2022-11-10T08:09:17.622Z,10.82
2022-11-10T08:12:03.149Z,10.86
2022-11-10T08:14:48.627Z,11.02
2022-11-10T08:17:33.948Z,11.15
2022-11-10T08:20:19.508Z,11.32
2022-11-10T08:23:06.261Z,11.35
2022-11-10T08:25:53.323Z,11.48
2022-11-10T08:28:38.690Z,11.60
2022-11-10T08:31:24.640Z,11.75
2022-11-10T08:34:10.098Z,11.82
2022-11-10T08:36:55.421Z,11.87
2022-11-10T08:39:41.074Z,11.83
2022-11-10T08:42:26.420Z,11.62
2022-11-10T08:45:11.967Z,11.70
2022-11-10T08:48:23.914Z,11.94
2022-11-10T08:51:09.752Z,11.93
2022-11-10T08:53:55.463Z,11.72
2022-11-10T08:56:40.668Z,11.75
2022-11-10T08:59:26.358Z,11.81
2022-11-10T09:02:11.951Z,11.98
2022-11-10T09:04:57.533Z,12.12
2022-11-10T09:07:45.337Z,12.12
2022-11-10T09:10:31.840Z,12.20
2022-11-10T09:13:17.327Z,12.14
2022-11-10T09:16:05.216Z,11.95
2022-11-10T09:18:50.683Z,11.99
2022-11-10T09:21:36.025Z,12.07
2022-11-10T09:24:21.880Z,12.32
2022-11-10T09:27:07.536Z,12.35
2022-11-10T09:29:53.071Z,12.50
2022-11-10T09:32:38.306Z,12.42
2022-11-10T09:35:25.282Z,12.44
2022-11-10T09:38:12.060Z,12.66
2022-11-10T09:41:08.379Z,12.74
2022-11-10T09:44:06.059Z,12.89
2022-11-10T09:47:12.429Z,13.03
2022-11-10T09:50:02.308Z,13.03
2022-11-10T09:52:49.669Z,13.05
2022-11-10T09:55:46.894Z,13.35
2022-11-10T09:58:39.055Z,13.31
2022-11-10T10:01:35.099Z,13.48
2022-11-10T10:04:37.427Z,13.71
2022-11-10T10:07:32.012Z,13.94
2022-11-10T10:10:32.051Z,13.65
2022-11-10T10:13:26.559Z,13.99
2022-11-10T10:16:20.659Z,14.16
2022-11-10T10:19:21.285Z,14.22
2022-11-10T10:22:23.640Z,14.13
2022-11-10T10:25:19.503Z,14.46
2022-11-10T10:28:04.769Z,14.48
2022-11-10T10:30:50.160Z,14.54
2022-11-10T10:33:35.772Z,14.81
2022-11-10T10:36:30.630Z,14.69
2022-11-10T10:39:39.943Z,14.93
2022-11-10T10:42:33.909Z,14.94
2022-11-10T10:45:29.923Z,14.84
2022-11-10T10:48:28.245Z,14.94
2022-11-10T10:51:30.742Z,15.08
2022-11-10T10:54:31.529Z,15.26
2022-11-10T10:57:29.311Z,14.98
2022-11-10T11:00:24.139Z,15.37
2022-11-10T11:03:37.625Z,15.67
2022-11-10T11:06:27.110Z,15.36
2022-11-10T11:09:17.321Z,15.26
2022-11-10T11:12:11.430Z,15.42
2022-11-10T11:15:23.106Z,15.61
2022-11-10T11:18:15.513Z,15.47
2022-11-10T11:21:12.881Z,15.80
2022-11-10T11:24:31.590Z,16.05
2022-11-10T11:27:34.057Z,16.04
2022-11-10T11:30:31.513Z,16.21
2022-11-10T11:33:42.478Z,16.38
2022-11-10T11:36:44.621Z,16.24
2022-11-10T11:39:32.888Z,16.39
2022-11-10T11:42:31.673Z,16.46
2022-11-10T11:45:24.208Z,16.27
2022-11-10T11:48:33.425Z,16.43
2022-11-10T11:51:40.021Z,16.24
2022-11-10T11:54:31.507Z,16.23
2022-11-10T11:57:31.683Z,16.44
2022-11-10T12:00:21.825Z,16.50
2022-11-10T12:03:42.799Z,16.36
2022-11-10T12:06:54.988Z,16.67
2022-11-10T12:09:56.491Z,16.52
2022-11-10T12:12:56.834Z,16.71
2022-11-10T12:15:51.459Z,16.60
2022-11-10T12:18:52.618Z,16.59
2022-11-10T12:21:40.820Z,16.58
2022-11-10T12:24:37.678Z,16.60
2022-11-10T12:27:28.952Z,16.81
2022-11-10T12:30:16.987Z,16.64
2022-11-10T12:33:15.558Z,16.84
2022-11-10T12:36:05.961Z,16.86
2022-11-10T12:39:02.667Z,16.80
2022-11-10T12:41:59.644Z,16.79
2022-11-10T12:44:45.096Z,16.80
2022-11-10T12:47:39.329Z,16.81
2022-11-10T12:50:27.263Z,16.63
2022-11-10T12:53:22.997Z,16.68
2022-11-10T12:56:37.594Z,16.74
2022-11-10T12:59:26.676Z,16.62
2022-11-10T13:02:48.203Z,16.54
2022-11-10T13:05:42.233Z,16.57
2022-11-10T13:08:42.381Z,16.51
2022-11-10T13:11:36.480Z,16.57
2022-11-10T13:14:30.736Z,16.57
2022-11-10T13:17:28.479Z,16.47
2022-11-10T13:20:38.657Z,16.59
2022-11-10T13:23:55.504Z,16.64
2022-11-10T13:26:40.952Z,16.59
2022-11-10T13:29:44.552Z,16.70
2022-11-10T13:32:34.870Z,16.60
2022-11-10T13:35:29.179Z,16.40
2022-11-10T13:38:39.710Z,16.47
2022-11-10T13:41:26.853Z,16.50
2022-11-10T13:44:27.944Z,16.30
2022-11-10T13:47:35.039Z,16.24
2022-11-10T13:50:33.640Z,16.33
2022-11-10T13:53:36.154Z,16.24
2022-11-10T13:56:45.471Z,16.19
2022-11-10T13:59:32.902Z,16.17
2022-11-10T14:02:37.185Z,16.19
2022-11-10T14:05:28.590Z,16.16
2022-11-10T14:08:24.235Z,16.13
2022-11-10T14:11:18.638Z,16.12
2022-11-10T14:14:45.106Z,16.03
2022-11-10T14:17:42.917Z,15.94
2022-11-10T14:20:35.523Z,15.94
2022-11-10T14:23:30.281Z,15.88
2022-11-10T14:26:57.206Z,15.83
2022-11-10T14:29:43.099Z,15.83
2022-11-10T14:32:30.991Z,15.58
2022-11-10T14:35:23.857Z,15.60
2022-11-10T14:49:26.620Z,15.22
2022-11-10T15:03:43.696Z,14.90
2022-11-10T15:06:30.721Z,14.89
2022-11-10T15:10:00.285Z,14.98
2022-11-10T15:13:02.361Z,14.88
2022-11-10T15:15:47.824Z,14.78
2022-11-10T15:18:33.870Z,14.71
2022-11-10T15:21:21.523Z,14.60
2022-11-10T15:24:07.565Z,14.50
2022-11-10T15:26:53.105Z,14.54
2022-11-10T15:29:38.537Z,14.32
2022-11-10T15:32:49.199Z,14.27
2022-11-10T15:35:34.471Z,14.18
2022-11-10T15:38:24.180Z,14.25
2022-11-10T15:41:27.008Z,14.16
2022-11-10T15:44:26.398Z,14.13
2022-11-10T15:47:13.386Z,14.15
2022-11-10T15:50:00.471Z,14.02
2022-11-10T15:52:46.167Z,14.11
2022-11-10T15:55:34.430Z,14.12
2022-11-10T15:58:22.577Z,14.20
2022-11-10T16:01:11.918Z,14.06
2022-11-10T16:03:57.734Z,13.99
2022-11-10T16:06:43.017Z,13.88
2022-11-10T16:09:28.906Z,13.80
2022-11-10T16:12:18.286Z,13.59
2022-11-10T16:15:04.200Z,13.67
2022-11-10T16:17:49.677Z,13.74
2022-11-10T16:20:34.931Z,13.61
2022-11-10T16:23:20.596Z,13.51
2022-11-10T16:26:07.587Z,13.45
2022-11-10T16:28:53.157Z,13.49
2022-11-10T16:31:38.403Z,13.49
2022-11-10T16:34:23.701Z,13.50
2022-11-10T16:37:12.257Z,13.60
2022-11-10T16:39:57.549Z,13.66
2022-11-10T16:42:43.151Z,13.60
2022-11-10T16:45:30.437Z,13.40
2022-11-10T16:48:19.231Z,13.50
2022-11-10T16:51:05.187Z,13.39
2022-11-10T16:53:52.746Z,13.28
2022-11-10T16:56:38.134Z,12.98
2022-11-10T16:59:23.578Z,13.04
2022-11-10T17:02:25.538Z,12.95
2022-11-10T17:05:15.023Z,13.04
2022-11-10T17:08:00.754Z,12.68
2022-11-10T17:10:46.012Z,12.83
2022-11-10T17:13:31.158Z,12.80
2022-11-10T17:16:29.714Z,12.78
2022-11-10T17:19:24.280Z,12.54
2022-11-10T17:22:12.347Z,12.47
2022-11-10T17:24:58.142Z,12.48
2022-11-10T17:27:43.983Z,12.59
2022-11-10T17:30:29.410Z,12.52
2022-11-10T17:33:14.567Z,12.21
2022-11-10T18:24:05.675Z,11.36
2022-11-10T18:26:50.917Z,11.51
2022-11-10T18:29:36.493Z,11.58
2022-11-10T18:32:23.114Z,11.59
2022-11-10T18:35:08.674Z,11.48
2022-11-10T18:37:54.195Z,11.40
2022-11-10T18:40:40.039Z,11.12
2022-11-10T18:43:25.494Z,11.10
2022-11-10T18:46:10.925Z,11.07
2022-11-10T18:48:57.170Z,10.97
2022-11-10T18:51:42.806Z,11.08
2022-11-10T18:54:28.679Z,10.94
2022-11-10T18:57:16.596Z,10.62
2022-11-10T19:00:02.553Z,10.39
2022-11-10T19:02:48.228Z,10.46
2022-11-10T19:05:33.604Z,10.52
2022-11-10T19:08:18.833Z,10.65
2022-11-10T19:11:10.479Z,10.73
2022-11-10T19:13:58.248Z,10.81
2022-11-10T19:16:43.739Z,10.92
2022-11-10T19:19:29.580Z,10.96
2022-11-10T19:22:15.094Z,10.86
2022-11-10T19:25:08.082Z,10.80
2022-11-10T19:27:54.462Z,10.80
2022-11-10T19:30:39.987Z,10.62
2022-11-10T19:33:25.765Z,10.41
2022-11-10T19:36:13.933Z,10.40
2022-11-10T19:38:59.088Z,10.42
2022-11-10T19:41:44.359Z,10.49
2022-11-10T19:44:29.593Z,10.65
2022-11-10T19:47:15.023Z,10.72
2022-11-10T19:50:00.200Z,10.68
2022-11-10T19:52:45.553Z,10.69
2022-11-10T19:55:33.446Z,10.59
2022-11-10T19:58:19.211Z,10.35
2022-11-10T20:01:05.885Z,9.97
2022-11-10T20:03:51.793Z,9.91
2022-11-10T20:06:37.399Z,9.80
2022-11-10T20:09:22.966Z,9.70
2022-11-10T20:12:08.256Z,9.65
2022-11-10T20:14:53.959Z,9.61
2022-11-10T20:17:39.180Z,9.67
2022-11-10T20:20:24.966Z,9.64
2022-11-10T20:23:11.824Z,9.56
2022-11-10T20:26:06.588Z,9.63
2022-11-10T20:28:51.895Z,9.62
2022-11-10T20:31:38.546Z,9.57
2022-11-10T20:34:24.122Z,9.54
2022-11-10T20:37:09.914Z,9.66
2022-11-10T20:39:55.042Z,9.71
2022-11-10T20:42:42.776Z,9.75
2022-11-10T20:45:28.341Z,9.83
2022-11-10T20:48:13.965Z,9.92
2022-11-10T20:50:59.914Z,9.89
2022-11-10T20:53:46.570Z,9.80
2022-11-10T20:56:32.268Z,9.58
2022-11-10T20:59:17.560Z,9.47
2022-11-10T21:02:03.262Z,9.26
2022-11-10T21:04:49.091Z,9.26
2022-11-10T21:07:34.171Z,9.39
2022-11-10T21:10:19.466Z,9.26
2022-11-10T21:13:04.753Z,9.35
2022-11-10T21:15:52.660Z,9.50
2022-11-10T21:18:38.342Z,9.40
2022-11-10T21:21:34.622Z,9.42
2022-11-10T21:24:20.717Z,9.29
2022-11-10T21:27:05.970Z,9.35
2022-11-10T21:29:51.400Z,9.15
2022-11-10T21:32:36.565Z,8.98
2022-11-10T21:35:22.421Z,8.83
2022-11-10T21:38:11.656Z,8.85
2022-11-10T21:40:58.022Z,8.77
2022-11-10T21:43:43.526Z,8.61
2022-11-10T21:46:28.626Z,8.49
2022-11-10T21:49:14.032Z,8.51
2022-11-10T21:51:59.500Z,8.56
2022-11-10T21:54:44.892Z,8.48
2022-11-10T21:57:30.501Z,8.64
2022-11-10T22:00:15.867Z,8.54
2022-11-10T22:03:03.555Z,8.47
2022-11-10T22:05:49.025Z,8.61
2022-11-10T22:08:36.223Z,8.47
2022-11-10T22:11:40.485Z,8.42
2022-11-10T22:14:44.195Z,8.30
2022-11-10T22:17:49.904Z,8.18
2022-11-10T22:20:35.425Z,8.16
2022-11-10T22:23:40.633Z,8.17
2022-11-10T22:26:26.236Z,8.22
2022-11-10T22:29:11.813Z,8.12
2022-11-10T22:31:58.541Z,8.18
2022-11-10T22:34:43.768Z,8.19
2022-11-10T22:37:33.087Z,8.32
2022-11-10T22:40:36.920Z,8.24
2022-11-10T22:43:41.261Z,8.15
2022-11-10T22:46:27.286Z,8.09
2022-11-10T22:49:14.878Z,8.17
2022-11-10T22:52:01.305Z,8.19
2022-11-10T22:54:46.836Z,8.17
2022-11-10T22:57:32.040Z,8.23
2022-11-10T23:00:17.677Z,8.29
2022-11-10T23:03:03.464Z,8.30
2022-11-10T23:05:56.094Z,8.40
2022-11-10T23:08:41.843Z,8.59
2022-11-10T23:11:31.898Z,8.72
2022-11-10T23:14:17.422Z,8.81
2022-11-10T23:17:02.563Z,8.83
2022-11-10T23:19:47.816Z,8.81
2022-11-10T23:22:32.955Z,8.87
2022-11-10T23:25:18.033Z,8.96
2022-11-10T23:28:03.919Z,8.87
2022-11-10T23:30:48.996Z,8.73
2022-11-10T23:33:35.734Z,8.64
2022-11-10T23:36:23.716Z,8.76
2022-11-10T23:39:09.161Z,8.72
2022-11-10T23:41:54.537Z,8.74
2022-11-10T23:44:40.122Z,8.71
2022-11-10T23:47:25.553Z,8.68
2022-11-10T23:50:10.672Z,8.27
2022-11-10T23:52:55.846Z,8.29
2022-11-10T23:55:41.319Z,8.33
2022-11-10T23:58:26.957Z,8.15
